Aeroporto :
LOGIN :

Iscrizione | Disclaimer

   EN    FR    IT 

 










Sommario :    VFR   VFR Marginale   IFR   IFR Intensivo   IFR Molto Intensivo
Visibilità : 
Base nubi : 
>= 8 km
>= 3000ft
5 / 8 km
1000 / 3000 ft
1500m / 5 km
500 / 1000 ft
800 / 1500m
200 / 500 ft
< 800m
< 200 ft
Simboli :   Temporali  Nebbia  Neve Forte  Precipitazioni Forti  Vento > 20 kt
SIGMETs :   Varie  Temporali  Ghiacco  Turbolenza  Onda orograficha  Ceneri Vulcaniche







- Altitudine del aeroporto : 53 ft
- Codice IATA : HAM


EDDH - Hamburg

ULTIMO METAR :
  • 192150Z 05007KT CAVOK 14/12 Q1006 BECMG 2000 BCFG BKN002

METARs OBSOLETI :
  • 192120Z 05007KT CAVOK 14/12 Q1006 NOSIG
  • 192050Z 07006KT 020V090 CAVOK 14/12 Q1006 NOSIG
  • 192020Z 05008KT 010V070 CAVOK 14/12 Q1006 NOSIG
  • 191950Z 05009KT 010V070 CAVOK 14/12 Q1006 NOSIG
  • 191920Z 04010KT 010V070 CAVOK 15/12 Q1005 NOSIG

TAF TAF EDDH
Valido dal 19 a 18 ore il 21 a 00 ore UTC


191700Z 1918/2024 04012KT 9999 FEW030
BECMG 1918/1920 04007KT
BECMG 1922/2001 2500 BCFG OVC002
TEMPO 2001/2006 0500 FG OVC001
BECMG 2006/2008 4000 BR BKN005
BECMG 2008/2010 9999 SCT020
Nessun NOTAM noto per questo aeroporto.



MetMap, La meteo Aeronautica in un colpo d'occhio ! - Copyright ORBIFLY Dicembre 2007 - Disclaimer

ORBIFLY MET'MAP TEAM :

Programmazione e sviluppo : Alexandra Zaïnal
Concezione e sviluppo : Baudouin d'Aumeries
Co-Programmazione e sviluppo : Marc-Olivier Méhu
Supporto tecnico e logistico : Manuel Goepfert
Aiuto per la traduzione : Arnaldo La Scala

Contatto : metmap@orbifly.com




FONTI E CREDITI :

   NOAA